sensor_id;sensor_type;location;lat;lon;timestamp;pressure;altitude;pressure_sealevel;temperature;humidity
31121;BME280;17770;45.966;13.632;2024-02-26T00:01:08;99786.63;;;16.52;63.19
31121;BME280;17770;45.966;13.632;2024-02-26T00:03:34;99786.63;;;16.52;63.79
31121;BME280;17770;45.966;13.632;2024-02-26T00:06:01;99788.38;;;16.52;63.40
31121;BME280;17770;45.966;13.632;2024-02-26T00:08:28;99781.44;;;16.52;63.73
31121;BME280;17770;45.966;13.632;2024-02-26T00:10:54;99775.47;;;16.50;63.63
31121;BME280;17770;45.966;13.632;2024-02-26T00:13:20;99775.47;;;16.50;63.88
31121;BME280;17770;45.966;13.632;2024-02-26T00:15:46;99771.94;;;16.51;63.18
31121;BME280;17770;45.966;13.632;2024-02-26T00:18:11;99774.63;;;16.50;63.54
31121;BME280;17770;45.966;13.632;2024-02-26T00:20:37;99770.28;;;16.50;63.17
31121;BME280;17770;45.966;13.632;2024-02-26T00:23:05;99764.31;;;16.48;63.44
31121;BME280;17770;45.966;13.632;2024-02-26T00:25:31;99767.66;;;16.50;63.61
31121;BME280;17770;45.966;13.632;2024-02-26T00:27:57;99776.47;;;16.48;63.54
31121;BME280;17770;45.966;13.632;2024-02-26T00:30:23;99770.47;;;16.47;63.43
31121;BME280;17770;45.966;13.632;2024-02-26T00:32:49;99762.66;;;16.47;63.73
31121;BME280;17770;45.966;13.632;2024-02-26T00:35:15;99764.41;;;16.47;63.74
31121;BME280;17770;45.966;13.632;2024-02-26T00:37:42;99765.25;;;16.47;63.24
31121;BME280;17770;45.966;13.632;2024-02-26T00:40:09;99759.22;;;16.47;63.69
31121;BME280;17770;45.966;13.632;2024-02-26T00:42:35;99756.72;;;16.45;63.32
31121;BME280;17770;45.966;13.632;2024-02-26T00:45:01;99749.75;;;16.46;63.46
31121;BME280;17770;45.966;13.632;2024-02-26T00:47:27;99752.34;;;16.46;63.77
31121;BME280;17770;45.966;13.632;2024-02-26T00:49:53;99746.38;;;16.44;63.64
31121;BME280;17770;45.966;13.632;2024-02-26T00:52:19;99745.41;;;16.45;63.34
31121;BME280;17770;45.966;13.632;2024-02-26T00:54:44;99735.22;;;16.42;63.58
31121;BME280;17770;45.966;13.632;2024-02-26T00:57:10;99734.38;;;16.41;63.82
31121;BME280;17770;45.966;13.632;2024-02-26T00:59:37;99742.91;;;16.43;63.40
31121;BME280;17770;45.966;13.632;2024-02-26T01:02:03;99733.44;;;16.42;63.36
31121;BME280;17770;45.966;13.632;2024-02-26T01:04:31;99727.41;;;16.42;63.09
31121;BME280;17770;45.966;13.632;2024-02-26T01:06:57;99728.34;;;16.41;63.60
31121;BME280;17770;45.966;13.632;2024-02-26T01:09:22;99724.06;;;16.40;63.35
31121;BME280;17770;45.966;13.632;2024-02-26T01:11:48;99721.44;;;16.40;63.30
31121;BME280;17770;45.966;13.632;2024-02-26T01:14:14;99719.78;;;16.39;63.14
31121;BME280;17770;45.966;13.632;2024-02-26T01:16:40;99718.94;;;16.38;63.17
31121;BME280;17770;45.966;13.632;2024-02-26T01:19:06;99717.28;;;16.37;63.77
31121;BME280;17770;45.966;13.632;2024-02-26T01:21:32;99717.28;;;16.37;63.62
31121;BME280;17770;45.966;13.632;2024-02-26T01:23:58;99719.91;;;16.37;63.58
31121;BME280;17770;45.966;13.632;2024-02-26T01:26:23;99713.00;;;16.36;63.22
31121;BME280;17770;45.966;13.632;2024-02-26T01:28:49;99709.47;;;16.37;63.06
31121;BME280;17770;45.966;13.632;2024-02-26T01:31:15;99708.75;;;16.35;63.88
31121;BME280;17770;45.966;13.632;2024-02-26T01:33:41;99707.78;;;16.36;63.52
31121;BME280;17770;45.966;13.632;2024-02-26T01:36:07;99708.75;;;16.35;63.46
31121;BME280;17770;45.966;13.632;2024-02-26T01:38:33;99705.28;;;16.35;63.65
31121;BME280;17770;45.966;13.632;2024-02-26T01:40:59;99701.88;;;16.34;63.14
31121;BME280;17770;45.966;13.632;2024-02-26T01:43:24;99701.03;;;16.34;63.12
31121;BME280;17770;45.966;13.632;2024-02-26T01:45:50;99692.38;;;16.33;63.00
31121;BME280;17770;45.966;13.632;2024-02-26T01:48:16;99705.41;;;16.33;63.05
31121;BME280;17770;45.966;13.632;2024-02-26T01:50:42;99693.31;;;16.32;63.65
31121;BME280;17770;45.966;13.632;2024-02-26T01:53:08;99701.97;;;16.33;63.41
31121;BME280;17770;45.966;13.632;2024-02-26T01:55:34;99701.22;;;16.31;63.18
31121;BME280;17770;45.966;13.632;2024-02-26T01:58:01;99692.47;;;16.32;63.42
31121;BME280;17770;45.966;13.632;2024-02-26T02:00:26;99689.03;;;16.31;63.56
31121;BME280;17770;45.966;13.632;2024-02-26T02:02:53;99684.78;;;16.30;63.31
31121;BME280;17770;45.966;13.632;2024-02-26T02:05:21;99679.56;;;16.30;63.02
31121;BME280;17770;45.966;13.632;2024-02-26T02:07:47;99676.13;;;16.30;62.78
31121;BME280;17770;45.966;13.632;2024-02-26T02:10:15;99684.78;;;16.30;62.97
31121;BME280;17770;45.966;13.632;2024-02-26T02:12:41;99684.78;;;16.30;63.10
31121;BME280;17770;45.966;13.632;2024-02-26T02:15:07;99675.31;;;16.29;63.22
31121;BME280;17770;45.966;13.632;2024-02-26T02:17:33;99672.72;;;16.29;63.11
31121;BME280;17770;45.966;13.632;2024-02-26T02:19:59;99677.16;;;16.27;62.88
31121;BME280;17770;45.966;13.632;2024-02-26T02:22:25;99674.56;;;16.27;63.09
31121;BME280;17770;45.966;13.632;2024-02-26T02:24:52;99675.47;;;16.26;63.03
31121;BME280;17770;45.966;13.632;2024-02-26T02:27:18;99670.28;;;16.26;63.02
31121;BME280;17770;45.966;13.632;2024-02-26T02:29:44;99672.88;;;16.26;63.17
31121;BME280;17770;45.966;13.632;2024-02-26T02:32:10;99672.06;;;16.26;63.19
31121;BME280;17770;45.966;13.632;2024-02-26T02:34:37;99668.63;;;16.25;63.07
31121;BME280;17770;45.966;13.632;2024-02-26T02:37:02;99672.16;;;16.24;63.47
31121;BME280;17770;45.966;13.632;2024-02-26T02:39:28;99667.78;;;16.25;63.33
31121;BME280;17770;45.966;13.632;2024-02-26T02:41:54;99671.22;;;16.25;63.42
31121;BME280;17770;45.966;13.632;2024-02-26T02:44:20;99672.16;;;16.24;62.80
31121;BME280;17770;45.966;13.632;2024-02-26T02:46:46;99670.47;;;16.23;63.16
31121;BME280;17770;45.966;13.632;2024-02-26T02:49:12;99669.66;;;16.23;63.33
31121;BME280;17770;45.966;13.632;2024-02-26T02:51:38;99664.56;;;16.21;63.45
31121;BME280;17770;45.966;13.632;2024-02-26T02:54:03;99668.94;;;16.21;62.98
31121;BME280;17770;45.966;13.632;2024-02-26T02:56:29;99666.22;;;16.22;63.27
31121;BME280;17770;45.966;13.632;2024-02-26T02:58:55;99664.56;;;16.21;63.38
31121;BME280;17770;45.966;13.632;2024-02-26T03:01:21;99662.88;;;16.20;63.42
31121;BME280;17770;45.966;13.632;2024-02-26T03:03:47;99649.03;;;16.20;63.24
31121;BME280;17770;45.966;13.632;2024-02-26T03:06:13;99654.22;;;16.20;63.42
31121;BME280;17770;45.966;13.632;2024-02-26T03:08:39;99647.38;;;16.19;62.92
31121;BME280;17770;45.966;13.632;2024-02-26T03:11:07;99641.31;;;16.18;62.85
31121;BME280;17770;45.966;13.632;2024-02-26T03:13:33;99646.53;;;16.18;62.74
31121;BME280;17770;45.966;13.632;2024-02-26T03:16:03;99644.88;;;16.17;63.16
31121;BME280;17770;45.966;13.632;2024-02-26T03:18:29;99645.81;;;16.16;63.08
31121;BME280;17770;45.966;13.632;2024-02-26T03:20:55;99649.22;;;16.17;63.34
31121;BME280;17770;45.966;13.632;2024-02-26T03:23:21;99641.41;;;16.17;63.38
31121;BME280;17770;45.966;13.632;2024-02-26T03:25:47;99648.47;;;16.15;63.26
31121;BME280;17770;45.966;13.632;2024-02-26T03:28:13;99647.56;;;16.16;62.84
31121;BME280;17770;45.966;13.632;2024-02-26T03:30:39;99649.41;;;16.14;63.23
31121;BME280;17770;45.966;13.632;2024-02-26T03:33:05;99646.72;;;16.15;63.03
31121;BME280;17770;45.966;13.632;2024-02-26T03:35:31;99638.19;;;16.13;62.69
31121;BME280;17770;45.966;13.632;2024-02-26T03:37:57;99650.38;;;16.13;63.14
31121;BME280;17770;45.966;13.632;2024-02-26T03:40:22;99640.78;;;16.13;62.93
31121;BME280;17770;45.966;13.632;2024-02-26T03:42:49;99629.66;;;16.11;63.13
31121;BME280;17770;45.966;13.632;2024-02-26T03:45:16;99631.31;;;16.12;62.63
31121;BME280;17770;45.966;13.632;2024-02-26T03:47:42;99617.66;;;16.09;63.24
31121;BME280;17770;45.966;13.632;2024-02-26T03:50:08;99627.97;;;16.10;63.08
31121;BME280;17770;45.966;13.632;2024-02-26T03:52:33;99625.38;;;16.10;63.01
31121;BME280;17770;45.966;13.632;2024-02-26T03:54:59;99625.47;;;16.09;63.09
31121;BME280;17770;45.966;13.632;2024-02-26T03:57:25;99625.56;;;16.07;62.98
31121;BME280;17770;45.966;13.632;2024-02-26T03:59:51;99626.50;;;16.06;62.88
31121;BME280;17770;45.966;13.632;2024-02-26T04:02:17;99633.38;;;16.07;63.15
31121;BME280;17770;45.966;13.632;2024-02-26T04:04:45;99623.91;;;16.06;63.40
31121;BME280;17770;45.966;13.632;2024-02-26T04:07:11;99627.44;;;16.05;62.88
31121;BME280;17770;45.966;13.632;2024-02-26T04:09:38;99625.66;;;16.06;63.09
31121;BME280;17770;45.966;13.632;2024-02-26T04:12:04;99627.44;;;16.05;62.55
31121;BME280;17770;45.966;13.632;2024-02-26T04:14:30;99633.47;;;16.06;62.73
31121;BME280;17770;45.966;13.632;2024-02-26T04:16:56;99624.94;;;16.04;62.71
31121;BME280;17770;45.966;13.632;2024-02-26T04:19:22;99624.81;;;16.05;62.85
31121;BME280;17770;45.966;13.632;2024-02-26T04:21:48;99625.78;;;16.04;62.95
31121;BME280;17770;45.966;13.632;2024-02-26T04:24:14;99624.09;;;16.03;63.11
31121;BME280;17770;45.966;13.632;2024-02-26T04:26:40;99622.44;;;16.02;63.02
31121;BME280;17770;45.966;13.632;2024-02-26T04:29:05;99619.81;;;16.02;62.53
31121;BME280;17770;45.966;13.632;2024-02-26T04:31:31;99638.03;;;16.02;62.47
31121;BME280;17770;45.966;13.632;2024-02-26T04:33:58;99637.19;;;16.02;62.62
31121;BME280;17770;45.966;13.632;2024-02-26T04:36:24;99629.38;;;16.02;63.01
31121;BME280;17770;45.966;13.632;2024-02-26T04:38:51;99631.16;;;16.01;62.43
31121;BME280;17770;45.966;13.632;2024-02-26T04:41:18;99625.13;;;16.01;62.67
31121;BME280;17770;45.966;13.632;2024-02-26T04:43:44;99631.16;;;16.01;63.14
31121;BME280;17770;45.966;13.632;2024-02-26T04:46:10;99622.63;;;15.99;63.08
31121;BME280;17770;45.966;13.632;2024-02-26T04:48:36;99625.22;;;15.99;62.38
31121;BME280;17770;45.966;13.632;2024-02-26T04:51:02;99626.97;;;15.99;62.67
31121;BME280;17770;45.966;13.632;2024-02-26T04:53:28;99619.28;;;15.97;62.66
31121;BME280;17770;45.966;13.632;2024-02-26T04:55:54;99628.84;;;15.97;63.05
31121;BME280;17770;45.966;13.632;2024-02-26T04:58:20;99619.38;;;15.96;62.68
31121;BME280;17770;45.966;13.632;2024-02-26T05:00:46;99620.22;;;15.96;62.41
31121;BME280;17770;45.966;13.632;2024-02-26T05:03:12;99624.59;;;15.96;62.66
31121;BME280;17770;45.966;13.632;2024-02-26T05:05:39;99628.13;;;15.95;63.08
31121;BME280;17770;45.966;13.632;2024-02-26T05:08:06;99621.25;;;15.94;62.48
31121;BME280;17770;45.966;13.632;2024-02-26T05:10:33;99617.81;;;15.93;62.91
31121;BME280;17770;45.966;13.632;2024-02-26T05:12:59;99628.22;;;15.93;62.68
31121;BME280;17770;45.966;13.632;2024-02-26T05:15:25;99625.63;;;15.93;62.50
31121;BME280;17770;45.966;13.632;2024-02-26T05:17:51;99627.38;;;15.93;62.46
31121;BME280;17770;45.966;13.632;2024-02-26T05:20:18;99623.19;;;15.90;62.83
31121;BME280;17770;45.966;13.632;2024-02-26T05:22:44;99635.28;;;15.91;62.70
31121;BME280;17770;45.966;13.632;2024-02-26T05:25:10;99632.69;;;15.91;62.90
31121;BME280;17770;45.966;13.632;2024-02-26T05:27:35;99631.75;;;15.92;62.56
31121;BME280;17770;45.966;13.632;2024-02-26T05:30:01;99631.94;;;15.89;62.51
31121;BME280;17770;45.966;13.632;2024-02-26T05:32:27;99631.94;;;15.89;62.32
31121;BME280;17770;45.966;13.632;2024-02-26T05:34:53;99642.34;;;15.89;62.85
31121;BME280;17770;45.966;13.632;2024-02-26T05:37:19;99640.69;;;15.88;62.29
31121;BME280;17770;45.966;13.632;2024-02-26T05:39:45;99640.75;;;15.87;62.42
31121;BME280;17770;45.966;13.632;2024-02-26T05:42:11;99651.16;;;15.87;62.62
31121;BME280;17770;45.966;13.632;2024-02-26T05:44:37;99643.34;;;15.87;62.89
31121;BME280;17770;45.966;13.632;2024-02-26T05:47:03;99656.44;;;15.85;62.62
31121;BME280;17770;45.966;13.632;2024-02-26T05:49:29;99663.25;;;15.88;62.76
31121;BME280;17770;45.966;13.632;2024-02-26T05:51:55;99662.50;;;15.86;62.24
31121;BME280;17770;45.966;13.632;2024-02-26T05:54:21;99660.00;;;15.84;62.70
31121;BME280;17770;45.966;13.632;2024-02-26T05:56:47;99659.16;;;15.84;62.61
31121;BME280;17770;45.966;13.632;2024-02-26T05:59:13;99660.09;;;15.83;62.29
31121;BME280;17770;45.966;13.632;2024-02-26T06:01:41;99666.94;;;15.84;62.29
31121;BME280;17770;45.966;13.632;2024-02-26T06:04:07;99675.69;;;15.83;62.52
31121;BME280;17770;45.966;13.632;2024-02-26T06:06:33;99673.09;;;15.83;62.69
31121;BME280;17770;45.966;13.632;2024-02-26T06:08:58;99674.84;;;15.82;62.13
31121;BME280;17770;45.966;13.632;2024-02-26T06:11:24;99674.03;;;15.82;62.64
31121;BME280;17770;45.966;13.632;2024-02-26T06:13:50;99682.66;;;15.82;62.07
31121;BME280;17770;45.966;13.632;2024-02-26T06:16:16;99684.50;;;15.80;62.82
31121;BME280;17770;45.966;13.632;2024-02-26T06:18:42;99681.91;;;15.80;62.20
31121;BME280;17770;45.966;13.632;2024-02-26T06:21:10;99681.19;;;15.78;62.82
31121;BME280;17770;45.966;13.632;2024-02-26T06:23:37;99690.63;;;15.79;62.47
31121;BME280;17770;45.966;13.632;2024-02-26T06:26:03;99690.72;;;15.78;62.53
31121;BME280;17770;45.966;13.632;2024-02-26T06:28:29;99702.78;;;15.79;61.99
31121;BME280;17770;45.966;13.632;2024-02-26T06:30:57;99704.56;;;15.78;62.01
31121;BME280;17770;45.966;13.632;2024-02-26T06:33:23;99710.69;;;15.77;62.50
31121;BME280;17770;45.966;13.632;2024-02-26T06:35:49;99709.94;;;15.75;62.32
31121;BME280;17770;45.966;13.632;2024-02-26T06:38:15;99703.81;;;15.76;62.13
31121;BME280;17770;45.966;13.632;2024-02-26T06:40:41;99705.50;;;15.77;62.18
31121;BME280;17770;45.966;13.632;2024-02-26T06:43:07;99702.97;;;15.76;62.59
31121;BME280;17770;45.966;13.632;2024-02-26T06:45:33;99708.38;;;15.73;62.15
31121;BME280;17770;45.966;13.632;2024-02-26T06:47:58;99710.88;;;15.74;62.66
31121;BME280;17770;45.966;13.632;2024-02-26T06:50:24;99711.72;;;15.75;62.05
31121;BME280;17770;45.966;13.632;2024-02-26T06:52:50;99716.09;;;15.74;62.71
31121;BME280;17770;45.966;13.632;2024-02-26T06:55:16;99716.19;;;15.73;62.53
31121;BME280;17770;45.966;13.632;2024-02-26T06:57:42;99728.22;;;15.74;61.98
31121;BME280;17770;45.966;13.632;2024-02-26T07:00:08;99728.22;;;15.74;62.21
31121;BME280;17770;45.966;13.632;2024-02-26T07:02:38;99733.44;;;15.74;62.54
31121;BME280;17770;45.966;13.632;2024-02-26T07:05:04;99736.03;;;15.74;62.08
31121;BME280;17770;45.966;13.632;2024-02-26T07:07:29;99728.31;;;15.72;61.82
31121;BME280;17770;45.966;13.632;2024-02-26T07:09:55;99736.13;;;15.72;62.05
31121;BME280;17770;45.966;13.632;2024-02-26T07:12:21;99735.31;;;15.72;62.41
31121;BME280;17770;45.966;13.632;2024-02-26T07:14:47;99735.31;;;15.72;62.09
31121;BME280;17770;45.966;13.632;2024-02-26T07:17:14;99728.44;;;15.71;62.40
31121;BME280;17770;45.966;13.632;2024-02-26T07:19:41;99726.66;;;15.71;62.30
31121;BME280;17770;45.966;13.632;2024-02-26T07:22:08;99731.88;;;15.71;62.33
31121;BME280;17770;45.966;13.632;2024-02-26T07:24:34;99737.91;;;15.72;61.97
31121;BME280;17770;45.966;13.632;2024-02-26T07:26:59;99734.47;;;15.71;62.23
31121;BME280;17770;45.966;13.632;2024-02-26T07:29:25;99731.88;;;15.71;62.24
31121;BME280;17770;45.966;13.632;2024-02-26T07:31:51;99729.38;;;15.70;62.27
31121;BME280;17770;45.966;13.632;2024-02-26T07:34:17;99726.75;;;15.70;62.53
31121;BME280;17770;45.966;13.632;2024-02-26T07:36:43;99730.19;;;15.70;62.29
31121;BME280;17770;45.966;13.632;2024-02-26T07:39:10;99734.56;;;15.70;62.09
31121;BME280;17770;45.966;13.632;2024-02-26T07:41:36;99734.56;;;15.70;62.65
31121;BME280;17770;45.966;13.632;2024-02-26T07:44:04;99726.75;;;15.70;62.02
31121;BME280;17770;45.966;13.632;2024-02-26T07:46:30;99729.47;;;15.68;62.47
31121;BME280;17770;45.966;13.632;2024-02-26T07:48:56;99726.75;;;15.70;62.25
31121;BME280;17770;45.966;13.632;2024-02-26T07:51:22;99731.03;;;15.71;62.50
31121;BME280;17770;45.966;13.632;2024-02-26T07:53:48;99719.78;;;15.70;62.11
31121;BME280;17770;45.966;13.632;2024-02-26T07:56:13;99718.97;;;15.70;62.02
31121;BME280;17770;45.966;13.632;2024-02-26T07:58:39;99738.06;;;15.68;62.38
31121;BME280;17770;45.966;13.632;2024-02-26T08:01:06;99735.38;;;15.70;62.45
31121;BME280;17770;45.966;13.632;2024-02-26T08:03:32;99727.69;;;15.68;62.09
31121;BME280;17770;45.966;13.632;2024-02-26T08:05:58;99732.06;;;15.68;62.38
31121;BME280;17770;45.966;13.632;2024-02-26T08:08:23;99734.66;;;15.68;62.56
31121;BME280;17770;45.966;13.632;2024-02-26T08:10:49;99737.25;;;15.68;62.45
31121;BME280;17770;45.966;13.632;2024-02-26T08:13:15;99742.47;;;15.68;62.54
31121;BME280;17770;45.966;13.632;2024-02-26T08:15:41;99756.28;;;15.68;62.28
31121;BME280;17770;45.966;13.632;2024-02-26T08:18:07;99759.72;;;15.69;62.59
31121;BME280;17770;45.966;13.632;2024-02-26T08:20:33;99750.25;;;15.68;61.86
31121;BME280;17770;45.966;13.632;2024-02-26T08:22:59;99741.72;;;15.66;62.20
31121;BME280;17770;45.966;13.632;2024-02-26T08:25:25;99750.25;;;15.68;61.86
31121;BME280;17770;45.966;13.632;2024-02-26T08:27:51;99752.00;;;15.68;61.78
31121;BME280;17770;45.966;13.632;2024-02-26T08:30:17;99748.47;;;15.68;61.88
31121;BME280;17770;45.966;13.632;2024-02-26T08:32:43;99741.63;;;15.68;61.96
31121;BME280;17770;45.966;13.632;2024-02-26T08:35:09;99744.13;;;15.69;62.29
31121;BME280;17770;45.966;13.632;2024-02-26T08:37:35;99744.97;;;15.70;61.88
31121;BME280;17770;45.966;13.632;2024-02-26T08:40:01;99744.97;;;15.70;61.82
31121;BME280;17770;45.966;13.632;2024-02-26T08:42:29;99743.38;;;15.67;61.99
31121;BME280;17770;45.966;13.632;2024-02-26T08:44:55;99739.00;;;15.68;61.92
31121;BME280;17770;45.966;13.632;2024-02-26T08:47:21;99742.38;;;15.70;61.80
31121;BME280;17770;45.966;13.632;2024-02-26T08:49:47;99736.31;;;15.69;62.21
31121;BME280;17770;45.966;13.632;2024-02-26T08:52:13;99736.31;;;15.69;62.12
31121;BME280;17770;45.966;13.632;2024-02-26T08:54:39;99726.88;;;15.68;61.74
31121;BME280;17770;45.966;13.632;2024-02-26T08:57:06;99735.38;;;15.70;61.84
31121;BME280;17770;45.966;13.632;2024-02-26T08:59:32;99734.56;;;15.70;61.91
31121;BME280;17770;45.966;13.632;2024-02-26T09:01:58;99741.50;;;15.69;61.92
31121;BME280;17770;45.966;13.632;2024-02-26T09:04:23;99740.66;;;15.68;62.28
31121;BME280;17770;45.966;13.632;2024-02-26T09:06:49;99732.06;;;15.68;61.66
31121;BME280;17770;45.966;13.632;2024-02-26T09:09:15;99729.47;;;15.68;62.26
31121;BME280;17770;45.966;13.632;2024-02-26T09:11:41;99738.91;;;15.69;61.83
31121;BME280;17770;45.966;13.632;2024-02-26T09:14:07;99739.84;;;15.68;61.68
31121;BME280;17770;45.966;13.632;2024-02-26T09:16:33;99734.66;;;15.68;61.83
31121;BME280;17770;45.966;13.632;2024-02-26T09:18:58;99734.66;;;15.68;61.92
31121;BME280;17770;45.966;13.632;2024-02-26T09:21:24;99739.00;;;15.68;61.80
31121;BME280;17770;45.966;13.632;2024-02-26T09:23:50;99739.84;;;15.68;61.65
31121;BME280;17770;45.966;13.632;2024-02-26T09:26:16;99736.31;;;15.69;61.92
31121;BME280;17770;45.966;13.632;2024-02-26T09:28:42;99746.81;;;15.68;62.15
31121;BME280;17770;45.966;13.632;2024-02-26T09:31:08;99758.88;;;15.68;62.15
31121;BME280;17770;45.966;13.632;2024-02-26T09:33:35;99752.84;;;15.68;61.46
31121;BME280;17770;45.966;13.632;2024-02-26T09:36:01;99752.00;;;15.68;61.89
31121;BME280;17770;45.966;13.632;2024-02-26T09:38:27;99752.84;;;15.68;62.11
31121;BME280;17770;45.966;13.632;2024-02-26T09:40:53;99759.72;;;15.69;62.12
31121;BME280;17770;45.966;13.632;2024-02-26T09:43:21;99753.66;;;15.68;62.46
31121;BME280;17770;45.966;13.632;2024-02-26T09:58:28;99762.22;;;15.71;62.11
31121;BME280;17770;45.966;13.632;2024-02-26T10:00:56;99758.78;;;15.70;62.60
31121;BME280;17770;45.966;13.632;2024-02-26T10:03:46;99756.16;;;15.70;62.23
31121;BME280;17770;45.966;13.632;2024-02-26T10:06:13;99761.22;;;15.73;62.20
31121;BME280;17770;45.966;13.632;2024-02-26T10:08:39;99759.44;;;15.74;62.17
31121;BME280;17770;45.966;13.632;2024-02-26T10:11:06;99753.31;;;15.75;61.53
31121;BME280;17770;45.966;13.632;2024-02-26T10:13:36;99756.00;;;15.73;62.00
31121;BME280;17770;45.966;13.632;2024-02-26T10:16:02;99754.31;;;15.72;62.15
31121;BME280;17770;45.966;13.632;2024-02-26T10:21:30;99758.63;;;15.73;62.10
31121;BME280;17770;45.966;13.632;2024-02-26T10:23:56;99752.56;;;15.73;61.85
31121;BME280;17770;45.966;13.632;2024-02-26T10:26:22;99755.16;;;15.73;61.60
31121;BME280;17770;45.966;13.632;2024-02-26T10:28:48;99753.41;;;15.73;62.07
31121;BME280;17770;45.966;13.632;2024-02-26T10:31:14;99762.03;;;15.74;61.54
31121;BME280;17770;45.966;13.632;2024-02-26T10:33:40;99768.16;;;15.73;61.49
31121;BME280;17770;45.966;13.632;2024-02-26T10:36:07;99749.88;;;15.74;62.01
31121;BME280;17770;45.966;13.632;2024-02-26T10:38:36;99754.13;;;15.75;62.67
31121;BME280;17770;45.966;13.632;2024-02-26T10:41:03;99750.53;;;15.78;61.94
31121;BME280;17770;45.966;13.632;2024-02-26T10:43:29;99753.13;;;15.78;61.84
31121;BME280;17770;45.966;13.632;2024-02-26T10:45:55;99753.97;;;15.78;61.93
31121;BME280;17770;45.966;13.632;2024-02-26T10:48:21;99754.78;;;15.79;62.37
31121;BME280;17770;45.966;13.632;2024-02-26T10:50:47;99753.97;;;15.78;61.98
31121;BME280;17770;45.966;13.632;2024-02-26T10:53:15;99756.47;;;15.80;62.03
31121;BME280;17770;45.966;13.632;2024-02-26T10:55:42;99749.50;;;15.80;62.47
31121;BME280;17770;45.966;13.632;2024-02-26T10:58:10;99741.69;;;15.80;61.74
31121;BME280;17770;45.966;13.632;2024-02-26T11:00:36;99746.06;;;15.80;61.70
31121;BME280;17770;45.966;13.632;2024-02-26T11:03:03;99741.69;;;15.80;62.43
31121;BME280;17770;45.966;13.632;2024-02-26T11:05:31;99735.78;;;15.78;62.01
31121;BME280;17770;45.966;13.632;2024-02-26T11:07:59;99732.13;;;15.81;61.80
31121;BME280;17770;45.966;13.632;2024-02-26T11:10:26;99726.94;;;15.81;62.40
31121;BME280;17770;45.966;13.632;2024-02-26T11:12:53;99737.25;;;15.82;61.90
31121;BME280;17770;45.966;13.632;2024-02-26T11:15:20;99730.28;;;15.83;61.78
31121;BME280;17770;45.966;13.632;2024-02-26T11:17:46;99732.03;;;15.82;61.64
31121;BME280;17770;45.966;13.632;2024-02-26T11:20:12;99729.34;;;15.84;62.24
31121;BME280;17770;45.966;13.632;2024-02-26T11:22:39;99722.50;;;15.83;62.19
31121;BME280;17770;45.966;13.632;2024-02-26T11:25:05;99722.38;;;15.84;61.86
31121;BME280;17770;45.966;13.632;2024-02-26T11:27:43;99724.16;;;15.84;61.79
31121;BME280;17770;45.966;13.632;2024-02-26T11:30:10;99718.94;;;15.84;62.17
31121;BME280;17770;45.966;13.632;2024-02-26T11:32:37;99719.78;;;15.84;62.36
31121;BME280;17770;45.966;13.632;2024-02-26T11:35:06;99710.22;;;15.85;61.75
31121;BME280;17770;45.966;13.632;2024-02-26T11:37:33;99714.50;;;15.86;62.23
31121;BME280;17770;45.966;13.632;2024-02-26T11:39:59;99715.44;;;15.85;61.85
31121;BME280;17770;45.966;13.632;2024-02-26T11:42:26;99712.75;;;15.86;61.75
31121;BME280;17770;45.966;13.632;2024-02-26T11:44:54;99705.84;;;15.85;62.25
31121;BME280;17770;45.966;13.632;2024-02-26T11:47:22;99707.53;;;15.86;61.95
31121;BME280;17770;45.966;13.632;2024-02-26T11:49:48;99709.19;;;15.87;61.89
31121;BME280;17770;45.966;13.632;2024-02-26T11:52:15;99704.00;;;15.87;61.95
31121;BME280;17770;45.966;13.632;2024-02-26T11:54:50;99705.69;;;15.88;62.53
31121;BME280;17770;45.966;13.632;2024-02-26T11:57:27;99703.00;;;15.90;62.40
31121;BME280;17770;45.966;13.632;2024-02-26T12:00:10;99704.75;;;15.89;61.96
31121;BME280;17770;45.966;13.632;2024-02-26T12:05:26;99689.13;;;15.89;61.93
31121;BME280;17770;45.966;13.632;2024-02-26T12:08:01;99693.31;;;15.92;62.32
31121;BME280;17770;45.966;13.632;2024-02-26T12:10:32;99693.31;;;15.92;62.36
31121;BME280;17770;45.966;13.632;2024-02-26T12:13:08;99688.09;;;15.92;61.89
31121;BME280;17770;45.966;13.632;2024-02-26T12:15:37;99689.78;;;15.93;62.59
31121;BME280;17770;45.966;13.632;2024-02-26T12:18:05;99688.84;;;15.94;61.92
31121;BME280;17770;45.966;13.632;2024-02-26T12:20:31;99681.91;;;15.94;61.95
31121;BME280;17770;45.966;13.632;2024-02-26T12:22:57;99679.19;;;15.96;61.98
31121;BME280;17770;45.966;13.632;2024-02-26T12:25:24;99675.75;;;15.95;61.88
31121;BME280;17770;45.966;13.632;2024-02-26T12:27:50;99682.63;;;15.96;62.10
31121;BME280;17770;45.966;13.632;2024-02-26T12:30:16;99679.94;;;15.98;62.69
31121;BME280;17770;45.966;13.632;2024-02-26T12:32:43;99684.28;;;15.97;62.03
31121;BME280;17770;45.966;13.632;2024-02-26T12:35:09;99678.16;;;15.98;62.15
31121;BME280;17770;45.966;13.632;2024-02-26T12:37:35;99679.00;;;15.99;62.27
31121;BME280;17770;45.966;13.632;2024-02-26T12:40:04;99673.78;;;15.99;62.53
31121;BME280;17770;45.966;13.632;2024-02-26T12:42:32;99679.84;;;15.99;62.11
31121;BME280;17770;45.966;13.632;2024-02-26T12:45:08;99680.69;;;16.00;62.31
31121;BME280;17770;45.966;13.632;2024-02-26T12:47:38;99684.09;;;16.00;62.68
31121;BME280;17770;45.966;13.632;2024-02-26T12:50:04;99678.81;;;16.02;62.14
31121;BME280;17770;45.966;13.632;2024-02-26T12:52:34;99680.59;;;16.01;62.38
31121;BME280;17770;45.966;13.632;2024-02-26T12:55:01;99682.25;;;16.02;62.06
31121;BME280;17770;45.966;13.632;2024-02-26T12:57:29;99677.88;;;16.03;62.27
31121;BME280;17770;45.966;13.632;2024-02-26T12:59:55;99679.66;;;16.02;62.63
31121;BME280;17770;45.966;13.632;2024-02-26T13:02:22;99683.91;;;16.03;62.22
31121;BME280;17770;45.966;13.632;2024-02-26T13:04:48;99684.75;;;16.04;62.45